createdAt,value
2022-10-13T00:01:12.323Z,10.53
2022-10-13T00:03:42.039Z,10.63
2022-10-13T00:06:10.948Z,10.53
2022-10-13T00:08:39.683Z,10.60
2022-10-13T00:11:19.725Z,10.56
2022-10-13T00:13:48.093Z,10.54
2022-10-13T00:16:18.423Z,10.64
2022-10-13T00:18:46.804Z,10.48
2022-10-13T00:21:17.425Z,10.69
2022-10-13T00:23:47.046Z,10.78
2022-10-13T00:26:20.313Z,10.82
2022-10-13T00:28:52.216Z,10.70
2022-10-13T00:31:22.644Z,10.71
2022-10-13T00:33:51.024Z,10.67
2022-10-13T00:36:20.633Z,10.27
2022-10-13T00:38:48.456Z,10.60
2022-10-13T00:41:16.836Z,10.71
2022-10-13T00:44:27.834Z,10.78
2022-10-13T00:46:56.013Z,10.47
2022-10-13T00:49:23.933Z,10.70
2022-10-13T00:51:51.744Z,10.79
2022-10-13T00:54:23.914Z,10.62
2022-10-13T00:56:52.526Z,10.78
2022-10-13T00:59:23.459Z,10.79
2022-10-13T01:01:54.523Z,10.76
2022-10-13T01:04:25.012Z,10.48
2022-10-13T01:06:53.225Z,10.18
2022-10-13T01:09:21.029Z,10.59
2022-10-13T01:12:01.324Z,10.88
2022-10-13T01:14:42.595Z,10.70
2022-10-13T01:17:23.949Z,10.65
2022-10-13T01:20:16.483Z,10.84
2022-10-13T01:23:20.125Z,10.97
2022-10-13T01:26:05.816Z,10.85
2022-10-13T01:28:43.901Z,10.76
2022-10-13T01:31:28.354Z,10.34
2022-10-13T01:34:08.523Z,10.49
2022-10-13T01:36:55.193Z,10.28
2022-10-13T01:39:38.234Z,9.54
2022-10-13T01:42:18.915Z,10.05
2022-10-13T01:44:51.632Z,10.39
2022-10-13T01:47:19.694Z,10.30
2022-10-13T01:49:48.474Z,10.30
2022-10-13T01:52:18.551Z,10.30
2022-10-13T01:54:52.236Z,10.29
2022-10-13T01:57:37.044Z,10.16
2022-10-13T02:00:11.354Z,10.01
2022-10-13T02:03:17.684Z,10.07
2022-10-13T02:05:50.134Z,10.13
2022-10-13T02:08:35.924Z,10.21
2022-10-13T02:11:08.235Z,10.15
2022-10-13T02:13:37.064Z,9.99
2022-10-13T02:16:08.435Z,10.19
2022-10-13T02:18:37.133Z,10.24
2022-10-13T02:21:07.075Z,10.14
2022-10-13T02:23:35.096Z,9.90
2022-10-13T02:26:02.944Z,9.98
2022-10-13T02:28:31.119Z,10.16
2022-10-13T02:30:58.953Z,10.07
2022-10-13T02:33:26.676Z,9.02
2022-10-13T02:35:54.793Z,9.70
2022-10-13T02:38:22.644Z,10.13
2022-10-13T02:40:50.441Z,10.14
2022-10-13T02:43:18.564Z,10.04
2022-10-13T02:45:46.445Z,9.95
2022-10-13T02:48:14.316Z,9.83
2022-10-13T02:50:42.418Z,9.86
2022-10-13T02:53:10.124Z,9.37
2022-10-13T02:55:37.842Z,9.49
2022-10-13T02:58:05.912Z,9.91
2022-10-13T03:00:33.836Z,9.82
2022-10-13T03:03:01.739Z,9.96
2022-10-13T03:05:29.793Z,9.23
2022-10-13T03:07:57.773Z,9.30
2022-10-13T03:10:26.283Z,9.56
2022-10-13T03:12:56.043Z,10.08
2022-10-13T03:15:24.025Z,9.53
2022-10-13T03:17:55.393Z,9.94
2022-10-13T03:20:23.603Z,9.96
2022-10-13T03:22:51.334Z,9.82
2022-10-13T03:25:19.125Z,9.64
2022-10-13T03:27:47.244Z,9.04
2022-10-13T03:30:15.107Z,9.17
2022-10-13T03:32:42.924Z,9.66
2022-10-13T03:35:11.024Z,8.90
2022-10-13T03:37:38.854Z,9.32
2022-10-13T03:40:07.326Z,9.64
2022-10-13T03:42:36.866Z,9.62
2022-10-13T03:45:05.726Z,9.65
2022-10-13T03:47:38.213Z,9.45
2022-10-13T03:50:06.733Z,9.27
2022-10-13T03:52:34.514Z,9.13
2022-10-13T03:55:02.734Z,9.10
2022-10-13T03:57:30.967Z,9.40
2022-10-13T03:59:59.053Z,9.55
2022-10-13T04:02:27.853Z,9.52
2022-10-13T04:04:55.874Z,9.28
2022-10-13T04:07:23.584Z,8.71
2022-10-13T04:09:51.344Z,8.97
2022-10-13T04:12:21.110Z,9.10
2022-10-13T04:14:49.213Z,8.52
2022-10-13T04:17:16.905Z,9.26
2022-10-13T04:19:45.047Z,9.45
2022-10-13T04:22:12.715Z,8.99
2022-10-13T04:24:41.992Z,8.99
2022-10-13T04:27:10.477Z,8.91
2022-10-13T04:29:38.346Z,9.22
2022-10-13T04:32:06.103Z,8.63
2022-10-13T04:34:34.497Z,8.91
2022-10-13T04:37:02.382Z,9.47
2022-10-13T04:39:30.354Z,9.38
2022-10-13T04:41:58.534Z,8.98
2022-10-13T04:44:26.524Z,9.15
2022-10-13T04:46:54.248Z,9.23
2022-10-13T04:49:22.475Z,9.15
2022-10-13T04:51:50.575Z,9.16
2022-10-13T04:54:18.664Z,9.23
2022-10-13T04:56:47.095Z,9.19
2022-10-13T04:59:14.903Z,9.20
2022-10-13T05:01:42.744Z,8.81
2022-10-13T05:04:14.010Z,8.92
2022-10-13T05:07:05.223Z,9.05
2022-10-13T05:09:30.743Z,8.77
2022-10-13T05:11:58.553Z,8.90
2022-10-13T05:14:26.394Z,9.34
2022-10-13T05:16:54.473Z,9.46
2022-10-13T05:19:22.174Z,9.22
2022-10-13T05:21:50.306Z,8.81
2022-10-13T05:24:20.884Z,9.03
2022-10-13T05:26:50.253Z,9.40
2022-10-13T05:29:18.555Z,8.78
2022-10-13T05:31:46.373Z,9.26
2022-10-13T05:34:14.258Z,9.47
2022-10-13T05:36:42.317Z,9.61
2022-10-13T05:39:10.403Z,9.51
2022-10-13T05:41:39.408Z,9.58
2022-10-13T05:44:14.195Z,9.51
2022-10-13T05:46:44.773Z,9.47
2022-10-13T05:49:12.815Z,9.12
2022-10-13T05:51:44.695Z,9.56
2022-10-13T05:54:24.534Z,9.44
2022-10-13T05:56:56.544Z,9.65
2022-10-13T05:59:27.478Z,10.75
2022-10-13T06:01:55.616Z,11.83
2022-10-13T06:04:34.886Z,11.82
2022-10-13T06:07:03.764Z,12.13
2022-10-13T06:09:35.203Z,12.42
2022-10-13T06:12:03.169Z,12.47
2022-10-13T06:14:31.491Z,12.73
2022-10-13T06:16:59.596Z,12.67
2022-10-13T06:19:27.533Z,12.32
2022-10-13T06:21:57.976Z,12.27
2022-10-13T06:24:29.173Z,12.06
2022-10-13T06:26:57.653Z,12.55
2022-10-13T06:29:25.558Z,12.88
2022-10-13T06:31:53.524Z,13.16
2022-10-13T06:34:21.674Z,12.91
2022-10-13T06:36:49.505Z,13.63
2022-10-13T06:39:17.971Z,13.96
2022-10-13T06:41:46.154Z,14.16
2022-10-13T06:44:14.355Z,14.25
2022-10-13T06:46:42.266Z,14.06
2022-10-13T06:49:10.607Z,13.88
2022-10-13T06:51:38.639Z,14.81
2022-10-13T06:54:07.025Z,14.17
2022-10-13T06:56:35.323Z,14.60
2022-10-13T06:59:06.418Z,14.79
2022-10-13T07:01:37.928Z,14.38
2022-10-13T07:04:13.393Z,14.01
2022-10-13T07:06:41.692Z,14.07
2022-10-13T07:09:10.106Z,14.30
2022-10-13T07:11:39.258Z,14.56
2022-10-13T07:14:07.201Z,14.57
2022-10-13T07:16:35.489Z,15.03
2022-10-13T07:19:03.728Z,15.48
2022-10-13T07:21:32.369Z,15.80
2022-10-13T07:24:02.376Z,16.18
2022-10-13T07:26:30.353Z,16.32
2022-10-13T07:28:58.321Z,16.15
2022-10-13T07:31:27.047Z,16.28
2022-10-13T07:33:55.412Z,16.58
2022-10-13T07:36:27.686Z,16.87
2022-10-13T07:38:55.915Z,17.08
2022-10-13T07:41:23.723Z,17.01
2022-10-13T07:43:55.707Z,17.23
2022-10-13T07:46:25.980Z,17.84
2022-10-13T07:48:54.867Z,17.77
2022-10-13T07:51:23.221Z,17.99
2022-10-13T07:53:51.251Z,18.15
2022-10-13T07:56:19.302Z,18.59
2022-10-13T07:58:48.378Z,18.54
2022-10-13T08:01:17.307Z,18.51
2022-10-13T08:03:49.825Z,18.63
2022-10-13T08:06:19.526Z,19.13
2022-10-13T08:08:48.184Z,19.32
2022-10-13T08:11:17.962Z,19.43
2022-10-13T08:13:52.116Z,19.91
2022-10-13T08:16:22.642Z,19.72
2022-10-13T08:18:51.043Z,20.35
2022-10-13T08:24:17.704Z,20.89
2022-10-13T08:26:47.043Z,20.89
2022-10-13T08:29:24.145Z,20.82
2022-10-13T08:31:53.857Z,21.43
2022-10-13T08:34:25.555Z,21.76
2022-10-13T08:36:56.673Z,21.92
2022-10-13T08:39:25.874Z,22.10
2022-10-13T08:41:55.211Z,22.34
2022-10-13T08:45:10.902Z,22.46
2022-10-13T08:47:25.364Z,22.11
2022-10-13T08:50:00.335Z,22.44
2022-10-13T08:52:43.144Z,22.48
2022-10-13T08:55:32.262Z,22.48
2022-10-13T08:58:02.403Z,23.45
2022-10-13T09:00:30.944Z,23.52
2022-10-13T09:03:17.029Z,23.28
2022-10-13T09:05:47.462Z,23.62
2022-10-13T09:08:20.265Z,23.36
2022-10-13T09:10:50.646Z,22.97
2022-10-13T09:13:20.703Z,23.12
2022-10-13T09:15:53.062Z,23.81
2022-10-13T09:18:28.828Z,23.71
2022-10-13T09:21:11.647Z,24.64
2022-10-13T09:23:41.897Z,25.10
2022-10-13T09:26:18.415Z,25.35
2022-10-13T09:28:46.937Z,25.70
2022-10-13T09:31:24.753Z,25.97
2022-10-13T09:34:03.555Z,25.67
2022-10-13T09:36:31.796Z,25.92
2022-10-13T09:39:14.885Z,25.92
2022-10-13T09:41:45.630Z,26.44
2022-10-13T09:44:17.095Z,26.02
2022-10-13T09:46:58.165Z,26.23
2022-10-13T09:49:34.974Z,26.13
2022-10-13T09:52:14.122Z,26.34
2022-10-13T09:55:32.004Z,26.25
2022-10-13T09:58:16.811Z,25.54
2022-10-13T10:00:45.587Z,24.37
2022-10-13T10:03:29.208Z,25.68
2022-10-13T10:06:01.694Z,24.34
2022-10-13T10:09:02.624Z,25.04
2022-10-13T10:11:39.484Z,25.27
2022-10-13T10:14:27.182Z,25.90
2022-10-13T10:17:17.044Z,26.36
2022-10-13T10:19:51.376Z,26.17
2022-10-13T10:22:25.326Z,26.36
2022-10-13T10:25:09.270Z,25.00
2022-10-13T10:27:43.878Z,26.01
2022-10-13T10:30:18.206Z,25.69
2022-10-13T10:32:57.924Z,26.09
2022-10-13T10:35:49.544Z,26.19
2022-10-13T10:38:44.737Z,25.90
2022-10-13T10:41:50.215Z,25.22
2022-10-13T10:44:21.920Z,25.44
2022-10-13T10:46:51.107Z,25.44
2022-10-13T10:49:26.135Z,25.63
2022-10-13T10:51:54.984Z,25.57
2022-10-13T10:54:31.754Z,25.65
2022-10-13T10:57:18.587Z,25.79
2022-10-13T11:00:01.148Z,25.50
2022-10-13T11:02:35.416Z,26.13
2022-10-13T11:05:06.351Z,26.06
2022-10-13T11:07:34.754Z,26.38
2022-10-13T11:10:13.913Z,26.69
2022-10-13T11:12:51.301Z,26.91
2022-10-13T11:15:22.037Z,26.49
2022-10-13T11:17:50.696Z,26.84
2022-10-13T11:20:21.544Z,26.96
2022-10-13T11:22:58.524Z,27.04
2022-10-13T11:25:40.348Z,27.26
2022-10-13T11:28:40.405Z,26.84
2022-10-13T11:31:14.334Z,26.69
2022-10-13T11:33:42.096Z,25.97
2022-10-13T11:36:44.112Z,25.74
2022-10-13T11:39:27.987Z,25.78
2022-10-13T11:42:04.144Z,26.32
2022-10-13T11:44:34.755Z,26.10
2022-10-13T11:47:19.772Z,25.88
2022-10-13T11:49:51.937Z,26.24
2022-10-13T11:52:48.164Z,25.34
2022-10-13T11:55:29.259Z,24.68
2022-10-13T11:58:10.814Z,25.13
2022-10-13T12:00:38.659Z,25.36
2022-10-13T12:03:21.794Z,24.57
2022-10-13T12:05:50.622Z,24.25
2022-10-13T12:08:21.153Z,24.36
2022-10-13T12:10:55.183Z,24.66
2022-10-13T12:13:29.209Z,24.19
2022-10-13T12:16:03.866Z,24.21
2022-10-13T12:18:40.085Z,24.24
2022-10-13T12:21:17.588Z,24.33
2022-10-13T12:23:46.506Z,23.49
2022-10-13T12:26:27.444Z,23.64
2022-10-13T12:29:02.505Z,23.72
2022-10-13T12:31:38.970Z,23.13
2022-10-13T12:37:07.258Z,22.89
2022-10-13T12:39:37.211Z,23.22
2022-10-13T12:42:08.160Z,23.19
2022-10-13T12:44:38.885Z,22.99
2022-10-13T12:47:39.945Z,22.09
2022-10-13T12:50:38.862Z,22.51
2022-10-13T12:53:14.783Z,22.77
2022-10-13T12:55:53.626Z,22.79
2022-10-13T12:58:43.624Z,22.75
2022-10-13T13:01:14.589Z,22.57
2022-10-13T13:03:43.877Z,22.18
2022-10-13T13:06:14.654Z,22.64
2022-10-13T13:08:43.560Z,22.45
2022-10-13T13:11:23.967Z,22.53
2022-10-13T13:14:31.513Z,22.56
2022-10-13T13:17:56.768Z,22.15
2022-10-13T13:20:28.923Z,22.05
2022-10-13T13:22:56.888Z,22.41
2022-10-13T13:25:25.973Z,22.28
2022-10-13T13:27:53.916Z,22.47
2022-10-13T13:30:23.754Z,22.12
2022-10-13T13:33:07.726Z,21.59
2022-10-13T13:35:38.272Z,21.44
2022-10-13T13:38:06.585Z,21.59
2022-10-13T13:40:34.651Z,21.58
2022-10-13T13:43:03.016Z,21.97
2022-10-13T13:45:31.764Z,21.80
2022-10-13T13:48:04.046Z,21.66
2022-10-13T13:50:36.646Z,22.01
2022-10-13T13:53:05.222Z,21.86
2022-10-13T13:55:33.666Z,22.23
2022-10-13T13:58:01.654Z,22.08
2022-10-13T14:00:29.803Z,21.45
2022-10-13T14:02:58.379Z,21.29
2022-10-13T14:05:26.398Z,21.92
2022-10-13T14:07:56.984Z,21.62
2022-10-13T14:10:26.077Z,21.68
2022-10-13T14:12:54.194Z,21.52
2022-10-13T14:15:25.784Z,21.39
2022-10-13T14:17:57.108Z,21.13
2022-10-13T14:20:25.027Z,21.27
2022-10-13T14:22:52.974Z,21.35
2022-10-13T14:25:21.417Z,21.24
2022-10-13T14:27:49.777Z,21.25
2022-10-13T14:30:17.732Z,20.92
2022-10-13T14:32:46.037Z,20.91
2022-10-13T14:35:14.076Z,20.81
2022-10-13T14:37:42.013Z,21.22
2022-10-13T14:40:10.693Z,20.83
2022-10-13T14:42:46.779Z,20.60
2022-10-13T14:45:18.078Z,20.53
2022-10-13T14:47:46.272Z,20.29
2022-10-13T14:50:23.484Z,20.33
2022-10-13T14:52:56.734Z,20.21
2022-10-13T14:55:28.165Z,20.21
2022-10-13T14:57:56.614Z,20.03
2022-10-13T15:00:45.405Z,20.24
2022-10-13T15:03:24.884Z,19.78
2022-10-13T15:05:55.203Z,19.75
2022-10-13T15:08:26.673Z,19.86
2022-10-13T15:11:17.555Z,19.29
2022-10-13T15:13:46.844Z,19.45
2022-10-13T15:16:32.128Z,19.32
2022-10-13T15:19:09.929Z,18.69
2022-10-13T15:21:39.950Z,18.87
2022-10-13T15:24:09.332Z,18.33
2022-10-13T15:26:37.253Z,18.48
2022-10-13T15:29:05.560Z,17.94
2022-10-13T15:31:33.811Z,18.89
2022-10-13T15:34:02.401Z,18.70
2022-10-13T15:36:30.440Z,18.45
2022-10-13T15:38:58.735Z,17.91
2022-10-13T15:41:27.040Z,17.65
2022-10-13T15:43:54.998Z,17.11
2022-10-13T15:46:24.455Z,16.95
2022-10-13T15:48:53.610Z,16.49
2022-10-13T15:51:24.339Z,16.23
2022-10-13T15:53:52.700Z,15.96
2022-10-13T15:56:20.780Z,15.62
2022-10-13T15:58:48.769Z,15.41
2022-10-13T16:01:17.267Z,15.01
2022-10-13T16:03:45.766Z,15.06
2022-10-13T16:06:14.561Z,14.90
2022-10-13T16:08:44.500Z,14.65
2022-10-13T16:11:14.960Z,14.42
2022-10-13T16:13:46.625Z,14.30
2022-10-13T16:16:16.480Z,14.06
2022-10-13T16:18:47.736Z,14.16
2022-10-13T16:21:19.478Z,13.83
2022-10-13T16:23:48.383Z,13.65
2022-10-13T16:26:20.318Z,13.30
2022-10-13T16:28:48.518Z,12.85
2022-10-13T16:31:18.061Z,13.44
2022-10-13T16:33:46.191Z,13.50
2022-10-13T16:36:19.210Z,13.41
2022-10-13T16:38:48.701Z,13.51
2022-10-13T16:41:18.495Z,13.20
2022-10-13T16:43:47.186Z,12.95
2022-10-13T16:46:17.802Z,12.83
2022-10-13T16:48:47.039Z,12.68
2022-10-13T16:51:20.336Z,12.18
2022-10-13T16:53:52.281Z,12.31
2022-10-13T16:56:24.729Z,12.54
2022-10-13T16:58:58.090Z,12.27
2022-10-13T17:01:26.902Z,12.44
2022-10-13T17:03:55.141Z,11.91
2022-10-13T17:06:24.966Z,12.35
2022-10-13T17:08:55.530Z,12.24
2022-10-13T17:11:26.404Z,12.25
2022-10-13T17:13:57.158Z,12.21
2022-10-13T17:16:25.311Z,12.38
2022-10-13T17:18:53.952Z,12.18
2022-10-13T17:21:22.450Z,12.30
2022-10-13T17:23:50.520Z,12.22
2022-10-13T17:26:20.923Z,12.22
2022-10-13T17:28:49.513Z,11.79
2022-10-13T17:31:22.590Z,12.11
2022-10-13T17:33:52.134Z,11.33
2022-10-13T17:36:26.091Z,11.47
2022-10-13T17:38:56.131Z,12.04
2022-10-13T17:41:24.931Z,11.78
2022-10-13T17:43:52.947Z,11.75
2022-10-13T17:46:36.151Z,11.72
2022-10-13T17:49:09.981Z,11.27
2022-10-13T17:51:39.114Z,11.63
2022-10-13T17:54:14.482Z,11.41
2022-10-13T17:56:44.621Z,11.65
2022-10-13T17:59:14.743Z,11.63
2022-10-13T18:01:43.406Z,11.47
2022-10-13T18:04:14.452Z,11.73
2022-10-13T18:06:46.526Z,11.50
2022-10-13T18:09:18.033Z,11.37
2022-10-13T18:11:50.667Z,11.14
2022-10-13T18:14:21.143Z,11.32
2022-10-13T18:16:52.700Z,11.24
2022-10-13T18:19:22.062Z,10.95
2022-10-13T18:21:50.352Z,11.19
2022-10-13T18:24:20.062Z,10.75
2022-10-13T18:26:48.702Z,10.95
2022-10-13T18:29:16.990Z,11.19
2022-10-13T18:31:44.931Z,10.76
2022-10-13T18:34:16.310Z,11.01
2022-10-13T18:36:50.641Z,11.31
2022-10-13T18:39:22.979Z,11.33
2022-10-13T18:41:52.340Z,11.20
2022-10-13T18:44:21.332Z,11.09
2022-10-13T18:46:50.962Z,11.22
2022-10-13T18:49:21.694Z,10.78
2022-10-13T18:51:51.785Z,11.04
2022-10-13T18:54:19.823Z,10.93
2022-10-13T18:56:47.784Z,10.82
2022-10-13T18:59:17.960Z,10.56
2022-10-13T19:01:47.091Z,10.57
2022-10-13T19:04:17.127Z,10.86
2022-10-13T19:06:45.085Z,10.82
2022-10-13T19:09:15.113Z,10.74
2022-10-13T19:11:43.908Z,10.74
2022-10-13T19:14:13.696Z,10.82
2022-10-13T19:16:43.014Z,10.70
2022-10-13T19:19:13.342Z,10.54
2022-10-13T19:21:41.661Z,10.49
2022-10-13T19:24:10.764Z,10.60
2022-10-13T19:26:40.201Z,10.48
2022-10-13T19:29:10.687Z,10.42
2022-10-13T19:31:40.010Z,10.46
2022-10-13T19:34:08.770Z,9.99
2022-10-13T19:36:42.339Z,10.20
2022-10-13T19:39:22.816Z,10.36
2022-10-13T19:41:53.923Z,10.57
2022-10-13T19:44:24.024Z,10.50
2022-10-13T19:46:52.632Z,10.58
2022-10-13T19:49:22.049Z,10.47
2022-10-13T19:51:51.538Z,10.33
2022-10-13T19:54:22.349Z,10.28
2022-10-13T19:56:51.125Z,10.16
2022-10-13T19:59:19.370Z,10.31
2022-10-13T20:01:47.744Z,10.30
2022-10-13T20:04:18.731Z,10.23
2022-10-13T20:06:48.180Z,10.14
2022-10-13T20:09:17.261Z,10.36
2022-10-13T20:11:46.694Z,10.34
2022-10-13T20:14:15.042Z,10.39
2022-10-13T20:16:43.422Z,10.45
2022-10-13T20:19:16.742Z,10.59
2022-10-13T20:21:48.192Z,10.53
2022-10-13T20:24:16.174Z,10.59
2022-10-13T20:26:44.092Z,10.66
2022-10-13T20:29:12.399Z,10.61
2022-10-13T20:31:40.228Z,10.61
2022-10-13T20:34:10.142Z,10.70
2022-10-13T20:36:39.211Z,10.72
2022-10-13T20:39:09.395Z,10.74
2022-10-13T20:41:37.310Z,10.51
2022-10-13T20:44:05.540Z,10.48
2022-10-13T20:46:34.452Z,10.78
2022-10-13T20:49:11.384Z,10.84
2022-10-13T20:51:41.147Z,10.66
2022-10-13T20:54:10.334Z,10.79
2022-10-13T20:56:38.560Z,10.74
2022-10-13T20:59:08.781Z,10.60
2022-10-13T21:01:37.189Z,10.60
2022-10-13T21:04:05.412Z,10.57
2022-10-13T21:06:34.451Z,10.50
2022-10-13T21:09:04.360Z,10.44
2022-10-13T21:11:32.131Z,10.40
2022-10-13T21:14:00.329Z,10.38
2022-10-13T21:16:29.139Z,10.47
2022-10-13T21:18:57.710Z,10.30
2022-10-13T21:21:28.628Z,10.52
2022-10-13T21:23:59.188Z,10.53
2022-10-13T21:26:30.160Z,10.45
2022-10-13T21:28:58.186Z,10.30
2022-10-13T21:31:26.835Z,10.24
2022-10-13T21:33:55.780Z,10.28
2022-10-13T21:36:25.880Z,10.33
2022-10-13T21:38:59.403Z,10.32
2022-10-13T21:41:28.140Z,10.37
2022-10-13T21:43:56.301Z,10.26
2022-10-13T21:46:29.517Z,10.27
2022-10-13T21:48:59.632Z,10.10
2022-10-13T21:51:36.350Z,10.33
2022-10-13T21:54:08.699Z,10.49
2022-10-13T21:56:38.420Z,10.58
2022-10-13T21:59:07.121Z,10.38
2022-10-13T22:01:35.288Z,10.58
2022-10-13T22:04:10.460Z,10.51
2022-10-13T22:06:38.189Z,10.53
2022-10-13T22:09:06.685Z,10.53
2022-10-13T22:11:36.434Z,10.35
2022-10-13T22:14:07.078Z,10.37
2022-10-13T22:16:41.101Z,10.53
2022-10-13T22:19:09.051Z,10.48
2022-10-13T22:21:42.488Z,10.40
2022-10-13T22:24:13.094Z,10.42
2022-10-13T22:26:42.401Z,10.38
2022-10-13T22:29:12.472Z,10.40
2022-10-13T22:31:41.578Z,10.42
2022-10-13T22:34:10.940Z,10.43
2022-10-13T22:36:43.613Z,10.47
2022-10-13T22:39:13.472Z,10.44
2022-10-13T22:41:41.492Z,10.32
2022-10-13T22:44:09.251Z,10.51
2022-10-13T22:46:38.572Z,10.48
2022-10-13T22:49:07.721Z,10.58
2022-10-13T22:51:36.589Z,10.43
2022-10-13T22:54:05.345Z,10.46
2022-10-13T22:56:34.312Z,10.46
2022-10-13T22:59:05.111Z,10.05
2022-10-13T23:01:33.310Z,10.33
2022-10-13T23:04:01.589Z,10.53
2022-10-13T23:06:31.567Z,10.62
2022-10-13T23:09:06.401Z,10.55
2022-10-13T23:11:34.477Z,10.71
2022-10-13T23:14:03.930Z,10.33
2022-10-13T23:16:31.740Z,10.38
2022-10-13T23:18:59.571Z,10.41
2022-10-13T23:21:29.120Z,10.38
2022-10-13T23:24:02.221Z,10.44
2022-10-13T23:26:31.031Z,10.25
2022-10-13T23:28:59.183Z,10.26
2022-10-13T23:31:28.137Z,10.37
2022-10-13T23:33:56.519Z,10.19
2022-10-13T23:36:29.609Z,10.30
2022-10-13T23:39:05.097Z,10.41
2022-10-13T23:41:33.410Z,10.25
2022-10-13T23:44:01.609Z,10.53
2022-10-13T23:46:29.470Z,10.51
2022-10-13T23:48:57.638Z,10.60
2022-10-13T23:51:26.347Z,10.37
2022-10-13T23:53:54.523Z,10.46
2022-10-13T23:56:22.799Z,10.50
2022-10-13T23:58:51.178Z,10.26
